Time;durP1;ratioP1;P1;durP2;ratioP2;P2;SDS_P1;SDS_P2;PMS_P1;PMS_P2;Temp;Humidity;BMP_temperature;BMP_pressure;BME280_temperature;BME280_humidity;BME280_pressure;Samples;Min_cycle;Max_cycle;Signal;HPM_P1;HPM_P2
2021/01/11 00:00:00;;;;;;;39.40;28.83;;;;;;;3.72;100.00;101274.44;5091439;28;20182;-71
2021/01/11 00:02:25;;;;;;;35.80;27.47;;;;;;;3.72;100.00;101272.59;5109467;28;20266;-72
2021/01/11 00:04:51;;;;;;;36.43;27.13;;;;;;;3.68;100.00;101260.63;5076153;28;20562;-72
2021/01/11 00:07:16;;;;;;;35.73;27.90;;;;;;;3.62;100.00;101269.50;5092710;28;20228;-72
2021/01/11 00:09:43;;;;;;;35.87;27.53;;;;;;;3.61;100.00;101262.50;5110697;28;20185;-72
2021/01/11 00:12:11;;;;;;;34.10;26.60;;;;;;;3.68;100.00;101266.00;5076018;28;20221;-72
2021/01/11 00:14:36;;;;;;;38.37;28.93;;;;;;;3.64;100.00;101267.44;5059780;28;20288;-72
2021/01/11 00:17:02;;;;;;;36.77;28.03;;;;;;;3.61;100.00;101261.69;5092540;28;20758;-72
2021/01/11 00:19:27;;;;;;;39.27;28.53;;;;;;;3.60;100.00;101244.75;5093095;28;20177;-72
2021/01/11 00:21:53;;;;;;;39.83;28.83;;;;;;;3.62;100.00;101245.34;5092645;28;20636;-72
2021/01/11 00:24:22;;;;;;;38.03;27.90;;;;;;;3.70;100.00;101237.06;5092982;28;20209;-71
2021/01/11 00:26:55;;;;;;;38.50;28.83;;;;;;;3.61;100.00;101234.84;5105419;28;20240;-71
2021/01/11 00:29:22;;;;;;;39.17;29.97;;;;;;;3.61;100.00;101229.47;5073782;28;20189;-72
2021/01/11 00:31:48;;;;;;;39.40;27.93;;;;;;;3.66;100.00;101243.88;5114065;28;20277;-71
2021/01/11 00:34:13;;;;;;;40.97;30.30;;;;;;;3.76;100.00;101238.06;5096897;28;20193;-71
2021/01/11 00:36:39;;;;;;;37.77;29.23;;;;;;;3.57;100.00;101236.28;5062841;28;20217;-71
2021/01/11 00:39:08;;;;;;;39.83;29.93;;;;;;;3.62;100.00;101239.97;5081593;28;20550;-71
2021/01/11 00:41:33;;;;;;;41.60;29.93;;;;;;;3.60;100.00;101238.56;5096220;28;20226;-72
2021/01/11 00:43:59;;;;;;;39.37;30.03;;;;;;;3.66;100.00;101238.50;5063705;28;20205;-71
2021/01/11 00:46:30;;;;;;;39.33;30.10;;;;;;;3.72;100.00;101235.00;5079298;28;20244;-71
2021/01/11 00:48:56;;;;;;;38.63;27.40;;;;;;;3.66;100.00;101238.50;5081741;28;20202;-72
2021/01/11 00:51:22;;;;;;;40.20;29.50;;;;;;;3.77;100.00;101235.16;5062875;28;20666;-72
2021/01/11 00:53:49;;;;;;;42.73;30.57;;;;;;;3.70;100.00;101234.38;5080410;28;20705;-71
2021/01/11 00:56:16;;;;;;;47.53;32.57;;;;;;;3.72;100.00;101236.81;5091925;28;20228;-71
2021/01/11 00:58:42;;;;;;;42.00;29.33;;;;;;;3.79;100.00;101238.47;5088328;28;20334;-73
2021/01/11 01:01:11;;;;;;;46.33;32.20;;;;;;;3.63;100.00;101238.94;5080229;28;20274;-71
2021/01/11 01:03:40;;;;;;;44.83;33.07;;;;;;;3.78;100.00;101239.50;5080216;28;20201;-71
2021/01/11 01:06:10;;;;;;;46.43;31.93;;;;;;;3.76;100.00;101241.56;5079362;28;20868;-72
2021/01/11 01:08:35;;;;;;;45.43;31.27;;;;;;;3.75;100.00;101236.41;5113930;28;20241;-71
2021/01/11 01:11:01;;;;;;;47.53;32.37;;;;;;;3.70;100.00;101237.06;5096309;28;20737;-72
2021/01/11 01:13:26;;;;;;;44.87;32.03;;;;;;;3.73;100.00;101233.13;5079907;28;20746;-72
2021/01/11 01:15:52;;;;;;;44.57;32.20;;;;;;;3.71;100.00;101237.88;5078322;28;20221;-72
2021/01/11 01:18:18;;;;;;;46.47;32.90;;;;;;;3.84;100.00;101230.56;5096832;28;20192;-72
2021/01/11 01:20:43;;;;;;;49.20;33.60;;;;;;;3.78;100.00;101230.63;5112514;28;20230;-71
2021/01/11 01:23:09;;;;;;;49.17;34.53;;;;;;;3.88;100.00;101229.09;5096730;28;20197;-71
2021/01/11 01:25:35;;;;;;;45.23;30.30;;;;;;;3.76;100.00;101230.03;5111898;28;20781;-71
2021/01/11 01:28:01;;;;;;;48.93;33.43;;;;;;;3.70;100.00;101242.44;5086299;28;20189;-71
2021/01/11 01:30:26;;;;;;;47.53;32.27;;;;;;;3.80;100.00;101240.09;5074610;28;20695;-71
2021/01/11 01:32:52;;;;;;;48.53;32.83;;;;;;;3.77;100.00;101237.84;5113077;28;20662;-72
2021/01/11 01:35:18;;;;;;;46.73;30.20;;;;;;;3.63;100.00;101233.59;5112590;28;20174;-72
2021/01/11 01:37:43;;;;;;;46.67;31.40;;;;;;;3.71;100.00;101241.38;5096130;28;20186;-71
2021/01/11 01:40:09;;;;;;;45.13;31.17;;;;;;;3.84;100.00;101230.56;5094599;28;20623;-72
2021/01/11 01:42:37;;;;;;;47.80;31.83;;;;;;;3.74;100.00;101229.41;5114328;28;20206;-72
2021/01/11 01:45:04;;;;;;;51.10;33.70;;;;;;;3.71;100.00;101230.63;5062077;28;20554;-71
2021/01/11 01:47:30;;;;;;;50.77;34.30;;;;;;;3.76;100.00;101228.16;5095935;28;20611;-72
2021/01/11 01:49:55;;;;;;;46.57;33.27;;;;;;;3.76;100.00;101230.03;5079266;28;20190;-72
2021/01/11 01:52:21;;;;;;;46.73;32.17;;;;;;;3.78;100.00;101220.69;5095421;28;20237;-72
2021/01/11 01:54:51;;;;;;;47.60;33.13;;;;;;;3.85;100.00;101229.53;5095520;28;20177;-72
2021/01/11 01:57:19;;;;;;;53.30;35.10;;;;;;;3.72;100.00;101223.41;5104518;28;20580;-72
2021/01/11 01:59:49;;;;;;;49.43;31.93;;;;;;;3.82;100.00;101219.22;5075009;28;20185;-71
2021/01/11 02:02:14;;;;;;;48.40;33.00;;;;;;;3.77;100.00;101219.03;5095955;28;20274;-71
2021/01/11 02:04:42;;;;;;;50.07;33.83;;;;;;;3.77;100.00;101228.97;5095732;28;20212;-71
2021/01/11 02:07:48;;;;;;;48.80;32.20;;;;;;;3.72;100.00;101226.94;5095690;28;20299;-72
2021/01/11 02:10:31;;;;;;;49.90;33.23;;;;;;;3.75;100.00;101215.75;5055732;28;20185;-72
2021/01/11 02:13:27;;;;;;;49.97;32.67;;;;;;;3.69;100.00;101219.28;5114104;28;20546;-71
2021/01/11 02:16:27;;;;;;;53.57;33.47;;;;;;;3.64;100.00;101219.09;5111436;28;20221;-71
2021/01/11 02:19:07;;;;;;;48.97;32.57;;;;;;;3.72;100.00;101216.19;5064318;28;20659;-72
2021/01/11 02:21:36;;;;;;;49.77;32.60;;;;;;;3.75;100.00;101215.75;5062123;28;20252;-72
2021/01/11 02:24:44;;;;;;;51.17;33.23;;;;;;;3.76;100.00;101217.41;5112259;28;20209;-72
2021/01/11 02:27:16;;;;;;;52.77;32.53;;;;;;;3.72;100.00;101212.66;5101547;28;20267;-72
2021/01/11 02:30:00;;;;;;;56.97;33.23;;;;;;;3.74;100.00;101205.25;5107763;28;20627;-72
2021/01/11 02:32:31;;;;;;;53.83;32.17;;;;;;;3.77;100.00;101202.91;5112592;28;20649;-72
2021/01/11 02:35:01;;;;;;;54.77;33.80;;;;;;;3.74;100.00;101203.38;5078656;28;20177;-72
2021/01/11 02:37:26;;;;;;;54.13;33.30;;;;;;;3.75;100.00;101205.00;5094728;28;20732;-72
2021/01/11 02:39:52;;;;;;;69.70;37.10;;;;;;;3.62;100.00;101207.75;5078257;28;20166;-71
2021/01/11 02:42:20;;;;;;;67.80;36.70;;;;;;;3.67;100.00;101202.56;5077553;28;20217;-71
2021/01/11 02:44:51;;;;;;;54.20;30.77;;;;;;;3.62;100.00;101199.69;5078357;28;20265;-71
2021/01/11 02:47:26;;;;;;;68.87;35.00;;;;;;;3.74;100.00;101203.38;5094153;28;20308;-71
2021/01/11 02:49:55;;;;;;;64.00;34.73;;;;;;;3.54;100.00;101197.25;5095527;28;20593;-73
2021/01/11 02:52:36;;;;;;;74.97;39.87;;;;;;;3.67;100.00;101202.56;5078197;28;20296;-72
2021/01/11 02:55:07;;;;;;;59.37;33.70;;;;;;;3.69;100.00;101200.50;5060584;28;20302;-73
2021/01/11 02:57:39;;;;;;;58.93;32.77;;;;;;;3.69;100.00;101191.63;5066180;28;20203;-73
2021/01/11 03:00:05;;;;;;;60.53;34.10;;;;;;;3.66;100.00;101192.84;5075838;28;20178;-72
2021/01/11 03:02:32;;;;;;;64.37;35.33;;;;;;;3.80;100.00;101190.94;5077016;28;20233;-72
2021/01/11 03:04:58;;;;;;;64.07;35.17;;;;;;;3.70;100.00;101179.81;5077467;28;20185;-72
2021/01/11 03:07:26;;;;;;;68.63;35.77;;;;;;;3.72;100.00;101183.97;5093747;28;20213;-72
2021/01/11 03:09:51;;;;;;;63.50;35.27;;;;;;;3.66;100.00;101179.44;5094821;28;20169;-72
2021/01/11 03:12:17;;;;;;;62.53;34.53;;;;;;;3.69;100.00;101172.81;5076804;28;20232;-72
2021/01/11 03:14:43;;;;;;;61.00;32.97;;;;;;;3.68;100.00;101182.75;5094091;28;20202;-72
2021/01/11 03:17:10;;;;;;;55.77;34.63;;;;;;;3.75;100.00;101170.09;5110890;28;20258;-73
2021/01/11 03:19:36;;;;;;;62.37;34.43;;;;;;;3.71;100.00;101176.09;5076968;28;20169;-72
2021/01/11 03:22:01;;;;;;;58.23;31.73;;;;;;;3.67;100.00;101164.97;5044402;28;20233;-72
2021/01/11 03:24:29;;;;;;;55.17;32.57;;;;;;;3.65;100.00;101167.06;5056989;28;20691;-72
2021/01/11 03:26:59;;;;;;;57.00;32.13;;;;;;;3.81;100.00;101177.31;5072133;28;20216;-72
2021/01/11 03:29:26;;;;;;;54.60;32.17;;;;;;;3.69;100.00;101162.88;5053755;28;20185;-72
2021/01/11 03:31:54;;;;;;;57.37;32.23;;;;;;;3.69;100.00;101165.56;5110523;28;20213;-73
2021/01/11 03:34:20;;;;;;;58.70;33.47;;;;;;;3.86;100.00;101166.72;5076969;28;20292;-72
2021/01/11 03:36:46;;;;;;;52.80;32.07;;;;;;;3.71;100.00;101160.81;5093281;28;20221;-72
2021/01/11 03:39:12;;;;;;;54.97;31.77;;;;;;;3.87;100.00;101154.94;5090905;28;20665;-72
2021/01/11 03:41:40;;;;;;;56.40;33.37;;;;;;;3.68;100.00;101155.03;5109650;28;20309;-72
2021/01/11 03:44:07;;;;;;;59.67;33.80;;;;;;;3.90;100.00;101157.16;5077353;28;20568;-72
2021/01/11 03:46:32;;;;;;;55.87;31.63;;;;;;;3.74;100.00;101152.34;5109768;28;20229;-72
2021/01/11 03:48:58;;;;;;;55.77;33.27;;;;;;;3.86;100.00;101153.28;5077177;28;20183;-72
2021/01/11 03:51:24;;;;;;;60.93;34.00;;;;;;;3.84;100.00;101139.25;5093075;28;20294;-72
2021/01/11 03:53:52;;;;;;;62.20;33.83;;;;;;;3.72;100.00;101150.88;5077077;28;20619;-72
2021/01/11 03:56:18;;;;;;;60.87;34.23;;;;;;;3.68;100.00;101144.31;5073389;28;20206;-73
2021/01/11 03:58:46;;;;;;;57.83;33.93;;;;;;;3.60;100.00;101142.69;5061118;28;20200;-72
2021/01/11 04:01:12;;;;;;;63.83;35.33;;;;;;;3.66;100.00;101146.38;5092963;28;20233;-72
2021/01/11 04:03:38;;;;;;;61.90;34.50;;;;;;;3.61;100.00;101139.00;5093190;28;20227;-73
2021/01/11 04:06:04;;;;;;;64.80;33.70;;;;;;;3.58;100.00;101139.41;5110317;28;20354;-73
2021/01/11 04:08:30;;;;;;;61.47;34.17;;;;;;;3.66;100.00;101130.28;5087753;28;20563;-73
2021/01/11 04:10:56;;;;;;;60.87;35.10;;;;;;;3.56;100.00;101130.75;5072680;28;20226;-72
2021/01/11 04:13:21;;;;;;;58.13;34.13;;;;;;;3.51;100.00;101138.63;5035648;28;20711;-71
2021/01/11 04:15:47;;;;;;;61.93;35.70;;;;;;;3.52;100.00;101137.59;5057588;28;20297;-72
2021/01/11 04:18:15;;;;;;;61.47;35.83;;;;;;;3.53;100.00;101139.22;5090768;28;20651;-72
2021/01/11 04:20:43;;;;;;;62.37;32.83;;;;;;;3.56;100.00;101136.13;5056986;28;20288;-72
2021/01/11 04:23:11;;;;;;;65.63;34.60;;;;;;;3.45;100.00;101123.38;5069998;28;20210;-72
2021/01/11 04:25:36;;;;;;;59.97;34.50;;;;;;;3.46;100.00;101127.72;5017342;28;20238;-72
2021/01/11 04:28:03;;;;;;;59.17;33.70;;;;;;;3.49;100.00;101124.59;5055034;28;20191;-72
2021/01/11 04:30:29;;;;;;;63.33;35.53;;;;;;;3.48;100.00;101122.16;5058893;28;20356;-71
2021/01/11 04:32:54;;;;;;;70.93;37.40;;;;;;;3.57;100.00;101127.03;5056380;28;20199;-72
2021/01/11 04:35:21;;;;;;;73.57;37.63;;;;;;;3.48;100.00;101122.97;5071889;28;20179;-72
2021/01/11 04:37:47;;;;;;;71.40;37.70;;;;;;;3.43;100.00;101119.28;5053530;28;20179;-72
2021/01/11 04:40:15;;;;;;;69.33;37.33;;;;;;;3.55;100.00;101106.78;5075237;28;20535;-73
2021/01/11 04:42:44;;;;;;;65.70;35.83;;;;;;;3.54;100.00;101105.97;5055653;28;20206;-72
2021/01/11 04:45:16;;;;;;;71.53;38.53;;;;;;;3.54;100.00;101113.22;5071749;28;20650;-73
2021/01/11 04:47:42;;;;;;;76.80;39.60;;;;;;;3.51;100.00;101116.31;5086816;28;20206;-72
2021/01/11 04:50:09;;;;;;;75.30;40.37;;;;;;;3.56;100.00;101113.81;5071294;28;20601;-72
2021/01/11 04:52:35;;;;;;;73.83;38.87;;;;;;;3.53;100.00;101117.75;5070822;28;20170;-73
2021/01/11 04:55:04;;;;;;;74.83;39.90;;;;;;;3.51;100.00;101103.72;5054215;28;20611;-72
2021/01/11 04:57:38;;;;;;;75.47;39.33;;;;;;;3.51;100.00;101101.03;5094642;28;20197;-72
2021/01/11 05:00:11;;;;;;;74.43;38.30;;;;;;;3.54;100.00;101097.91;5108980;28;20185;-72
2021/01/11 05:02:43;;;;;;;67.60;38.80;;;;;;;3.60;100.00;101099.72;5072388;28;20415;-72
2021/01/11 05:05:13;;;;;;;72.07;38.87;;;;;;;3.52;100.00;101105.38;5054922;28;20643;-72
2021/01/11 05:07:38;;;;;;;70.20;39.33;;;;;;;3.43;100.00;101097.78;5093208;28;20197;-71
2021/01/11 05:10:09;;;;;;;66.23;37.67;;;;;;;3.42;100.00;101095.31;5076468;28;20230;-72
2021/01/11 05:12:35;;;;;;;69.17;37.63;;;;;;;3.49;100.00;101087.00;5056954;28;20222;-71
2021/01/11 05:15:22;;;;;;;80.17;39.40;;;;;;;3.46;100.00;101081.22;5058612;28;20247;-72
2021/01/11 05:17:50;;;;;;;62.90;32.93;;;;;;;3.41;100.00;101088.28;5079452;28;20233;-72
2021/01/11 05:20:22;;;;;;;72.47;38.47;;;;;;;3.34;100.00;101082.16;5096509;28;20177;-72
2021/01/11 05:22:47;;;;;;;68.00;38.07;;;;;;;3.38;100.00;101084.19;5096833;28;20205;-72
2021/01/11 05:25:13;;;;;;;66.67;37.93;;;;;;;3.43;100.00;101078.19;5062279;28;20238;-72
2021/01/11 05:27:39;;;;;;;65.30;37.83;;;;;;;3.37;100.00;101081.72;5084013;28;20195;-72
2021/01/11 05:30:09;;;;;;;66.20;37.93;;;;;;;3.46;100.00;101076.72;5113574;28;20199;-72
2021/01/11 05:32:37;;;;;;;64.87;36.90;;;;;;;3.56;100.00;101077.03;5113398;28;20216;-73
2021/01/11 05:35:03;;;;;;;69.47;38.93;;;;;;;3.56;100.00;101077.03;5112320;28;20218;-72
2021/01/11 05:37:32;;;;;;;64.57;37.27;;;;;;;3.60;100.00;101078.25;5076280;28;20187;-72
2021/01/11 05:40:20;;;;;;;65.73;36.30;;;;;;;3.56;100.00;101066.31;5092460;28;20640;-72
2021/01/11 05:42:50;;;;;;;62.77;35.83;;;;;;;3.48;100.00;101063.91;5075973;28;20240;-72
2021/01/11 05:45:27;;;;;;;59.47;34.73;;;;;;;3.45;100.00;101064.31;5091939;28;20266;-72
2021/01/11 05:48:05;;;;;;;58.53;33.83;;;;;;;3.42;100.00;101060.44;5075449;28;20558;-73
2021/01/11 05:50:45;;;;;;;60.03;36.13;;;;;;;3.48;100.00;101058.53;5092046;28;20222;-72
2021/01/11 05:53:19;;;;;;;59.93;35.93;;;;;;;3.46;100.00;101059.75;5060307;28;20201;-72
2021/01/11 05:55:50;;;;;;;55.17;34.43;;;;;;;3.44;100.00;101057.31;5107007;28;20713;-72
2021/01/11 05:58:18;;;;;;;55.37;34.63;;;;;;;3.34;100.00;101056.13;5096447;28;20186;-72
2021/01/11 06:00:46;;;;;;;55.30;33.67;;;;;;;3.35;100.00;101049.75;5048910;28;20226;-72
2021/01/11 06:03:12;;;;;;;52.00;34.40;;;;;;;3.45;100.00;101053.56;5092235;28;20210;-72
2021/01/11 06:05:38;;;;;;;58.10;36.07;;;;;;;3.52;100.00;101054.38;5057661;28;20249;-72
2021/01/11 06:08:05;;;;;;;55.73;33.33;;;;;;;3.43;100.00;101052.16;5093185;28;20244;-73
2021/01/11 06:10:31;;;;;;;55.77;34.30;;;;;;;3.43;100.00;101043.28;5075399;28;20222;-73
2021/01/11 06:12:59;;;;;;;53.67;33.33;;;;;;;3.44;100.00;101045.72;5084160;28;20266;-72
2021/01/11 06:15:25;;;;;;;51.00;33.43;;;;;;;3.45;100.00;101050.91;5075066;28;20220;-72
2021/01/11 06:17:57;;;;;;;52.27;33.97;;;;;;;3.57;100.00;101040.28;5042160;28;20194;-72
2021/01/11 06:20:27;;;;;;;56.27;35.70;;;;;;;3.42;100.00;101042.44;5077980;28;20202;-72
2021/01/11 06:22:54;;;;;;;53.70;38.00;;;;;;;3.51;100.00;101043.84;5083246;28;20202;-72
2021/01/11 06:25:19;;;;;;;52.47;34.23;;;;;;;3.45;100.00;101047.41;5089304;28;20614;-72
2021/01/11 06:28:03;;;;;;;54.23;33.10;;;;;;;3.41;100.00;101039.97;5086736;28;20239;-72
2021/01/11 06:30:38;;;;;;;52.17;32.70;;;;;;;3.47;100.00;101039.94;5088856;28;20224;-72
2021/01/11 06:33:11;;;;;;;50.50;32.87;;;;;;;3.35;100.00;101047.06;5085307;28;20202;-72
2021/01/11 06:35:47;;;;;;;45.40;30.03;;;;;;;3.35;100.00;101044.38;5039182;28;20251;-71
2021/01/11 06:38:17;;;;;;;50.50;31.97;;;;;;;3.30;100.00;101049.56;5076053;28;20194;-71
2021/01/11 06:40:43;;;;;;;51.00;32.67;;;;;;;3.26;100.00;101047.50;5090806;28;20607;-72
2021/01/11 06:43:08;;;;;;;49.10;31.90;;;;;;;3.24;100.00;101049.59;5073716;28;20209;-71
2021/01/11 06:45:41;;;;;;;49.17;31.93;;;;;;;3.19;100.00;101050.25;5073709;28;20449;-70
2021/01/11 06:48:09;;;;;;;44.00;29.33;;;;;;;3.18;100.00;101045.09;5077404;28;20228;-72
2021/01/11 06:50:35;;;;;;;51.67;32.00;;;;;;;3.19;100.00;101052.13;5077381;28;20234;-71
2021/01/11 06:53:01;;;;;;;43.87;30.73;;;;;;;3.13;100.00;101044.91;5063169;28;20214;-72
2021/01/11 06:55:27;;;;;;;43.30;30.20;;;;;;;3.14;100.00;101038.50;5098490;28;20214;-73
2021/01/11 06:57:57;;;;;;;43.13;29.53;;;;;;;3.07;100.00;101043.09;5079028;28;20683;-73
2021/01/11 07:00:32;;;;;;;48.50;31.80;;;;;;;2.97;100.00;101036.53;5063529;28;20197;-73
2021/01/11 07:03:06;;;;;;;44.00;29.63;;;;;;;3.00;100.00;101036.09;5061260;28;20202;-71
2021/01/11 07:05:38;;;;;;;44.07;30.13;;;;;;;3.06;100.00;101036.09;5072638;28;20301;-71
2021/01/11 07:08:15;;;;;;;41.47;28.10;;;;;;;2.93;100.00;101036.16;5091487;28;20705;-71
2021/01/11 07:10:42;;;;;;;42.60;28.70;;;;;;;2.95;100.00;101038.59;5090401;28;20292;-71
2021/01/11 07:13:16;;;;;;;43.03;29.10;;;;;;;2.89;100.00;101034.91;5074289;28;20255;-71
2021/01/11 07:15:51;;;;;;;42.73;29.17;;;;;;;2.83;100.00;101035.78;5090588;28;20222;-71
2021/01/11 07:18:56;;;;;;;40.57;29.20;;;;;;;2.97;100.00;101037.38;5059179;28;20677;-71
2021/01/11 07:21:22;;;;;;;40.23;28.97;;;;;;;2.92;100.00;101050.59;5016458;28;20246;-71
2021/01/11 07:23:48;;;;;;;43.57;30.40;;;;;;;2.96;100.00;101046.44;5085137;28;20583;-71
2021/01/11 07:26:18;;;;;;;45.17;31.90;;;;;;;2.84;100.00;101048.16;5087963;28;20214;-72
2021/01/11 07:28:57;;;;;;;43.47;29.70;;;;;;;2.82;100.00;101036.81;5074185;28;20236;-71
2021/01/11 07:31:33;;;;;;;43.23;30.33;;;;;;;2.78;100.00;101040.97;5074718;28;20225;-71
2021/01/11 07:34:16;;;;;;;41.87;28.47;;;;;;;2.84;100.00;101034.75;5074579;28;20198;-71
2021/01/11 07:36:48;;;;;;;44.57;27.37;;;;;;;2.66;100.00;101038.34;5042468;28;20218;-72
2021/01/11 07:39:31;;;;;;;41.83;29.03;;;;;;;2.54;100.00;101034.66;5041376;28;20755;-71
2021/01/11 07:42:00;;;;;;;42.27;28.87;;;;;;;2.48;100.00;101030.16;5073090;28;20233;-71
2021/01/11 07:44:31;;;;;;;41.43;28.77;;;;;;;2.49;100.00;101037.16;5073602;28;20202;-71
2021/01/11 07:47:07;;;;;;;38.57;28.20;;;;;;;2.55;100.00;101039.81;5073052;28;20206;-71
2021/01/11 07:49:35;;;;;;;40.90;28.77;;;;;;;2.51;100.00;101029.72;5075539;28;20269;-71
2021/01/11 07:52:05;;;;;;;40.97;27.80;;;;;;;2.50;100.00;101025.41;5058547;28;20220;-71
2021/01/11 07:54:33;;;;;;;41.67;28.53;;;;;;;2.48;100.00;101024.78;5076268;28;20201;-71
2021/01/11 07:56:59;;;;;;;43.33;29.53;;;;;;;2.30;100.00;101030.00;5073874;28;20247;-71
2021/01/11 07:59:25;;;;;;;45.80;29.97;;;;;;;2.47;100.00;101028.50;5074805;28;20196;-72
2021/01/11 08:01:54;;;;;;;46.53;29.77;;;;;;;2.40;100.00;101022.31;5090760;28;20275;-72
2021/01/11 08:04:20;;;;;;;45.10;29.57;;;;;;;2.36;100.00;101015.75;5057586;28;20206;-71
2021/01/11 08:06:53;;;;;;;49.70;31.50;;;;;;;2.54;100.00;101013.22;5073265;28;20214;-71
2021/01/11 08:09:24;;;;;;;45.03;29.20;;;;;;;2.33;100.00;101008.16;5057637;28;20179;-71
2021/01/11 08:12:12;;;;;;;44.63;30.17;;;;;;;2.29;100.00;101004.25;5040048;28;20225;-70
2021/01/11 08:14:41;;;;;;;43.07;28.37;;;;;;;2.35;100.00;101003.41;5074301;28;20229;-71
2021/01/11 08:17:12;;;;;;;43.90;29.80;;;;;;;2.40;100.00;100992.84;5073181;28;20347;-71
2021/01/11 08:19:40;;;;;;;39.87;27.27;;;;;;;2.37;100.00;100996.78;5090293;28;20660;-70
2021/01/11 08:22:07;;;;;;;44.70;29.73;;;;;;;2.30;100.00;101000.53;5056866;28;20229;-71
2021/01/11 08:24:33;;;;;;;45.60;29.40;;;;;;;2.33;100.00;101000.13;5073013;28;20744;-71
2021/01/11 08:27:01;;;;;;;42.03;30.10;;;;;;;2.39;100.00;101004.63;5039173;28;20217;-76
2021/01/11 08:29:40;;;;;;;48.00;32.00;;;;;;;2.48;100.00;101000.69;5089887;28;20182;-71
2021/01/11 08:32:10;;;;;;;51.93;33.77;;;;;;;2.52;100.00;101009.94;5073257;28;20631;-71
2021/01/11 08:34:36;;;;;;;55.70;34.57;;;;;;;2.41;100.00;101013.28;5056656;28;20241;-70
2021/01/11 08:37:22;;;;;;;52.10;33.37;;;;;;;2.41;100.00;101006.03;5072727;28;20465;-70
2021/01/11 08:39:57;;;;;;;51.70;31.23;;;;;;;2.46;100.00;101005.44;5056902;28;20190;-70
2021/01/11 08:42:27;;;;;;;55.93;33.70;;;;;;;2.39;100.00;101012.66;5089309;28;20285;-71
2021/01/11 08:44:52;;;;;;;80.40;42.93;;;;;;;2.46;100.00;101006.25;5056709;28;20206;-70
2021/01/11 08:47:32;;;;;;;82.40;42.80;;;;;;;2.57;100.00;101004.78;5072448;28;20253;-70
2021/01/11 08:50:02;;;;;;;51.63;32.33;;;;;;;2.43;100.00;100995.13;5059959;28;20652;-71
2021/01/11 08:52:31;;;;;;;43.30;29.33;;;;;;;2.53;100.00;100995.50;5043129;28;20233;-72
2021/01/11 08:55:18;;;;;;;50.00;30.67;;;;;;;2.59;100.00;100992.78;5093725;28;20178;-72
2021/01/11 08:58:00;;;;;;;48.50;29.73;;;;;;;2.47;100.00;100993.66;5099538;28;20309;-71
2021/01/11 09:00:28;;;;;;;49.97;31.83;;;;;;;2.44;100.00;100991.41;5072765;28;20175;-72
2021/01/11 09:02:56;;;;;;;55.77;31.63;;;;;;;2.50;100.00;101002.09;5090305;28;20202;-71
2021/01/11 09:05:23;;;;;;;53.77;31.33;;;;;;;2.60;100.00;101002.50;5072834;28;20175;-70
2021/01/11 09:07:53;;;;;;;51.37;28.30;;;;;;;2.55;100.00;100990.75;5057706;28;20653;-71
2021/01/11 09:10:19;;;;;;;58.00;32.37;;;;;;;2.51;100.00;101002.91;5056907;28;20175;-70
2021/01/11 09:12:46;;;;;;;49.47;28.57;;;;;;;2.49;100.00;100995.13;5074345;28;20195;-71
2021/01/11 09:15:12;;;;;;;54.83;32.27;;;;;;;2.53;100.00;100990.16;5073159;28;20191;-71
2021/01/11 09:17:40;;;;;;;53.13;32.00;;;;;;;2.61;100.00;100992.59;5074270;28;20171;-71
2021/01/11 09:20:07;;;;;;;59.93;33.63;;;;;;;2.63;100.00;101001.22;5072935;28;20289;-71
2021/01/11 09:22:38;;;;;;;55.10;30.67;;;;;;;2.63;100.00;101001.22;5074493;28;20785;-71
2021/01/11 09:25:05;;;;;;;55.73;34.07;;;;;;;2.60;100.00;100996.28;5089209;28;20317;-72
2021/01/11 09:27:36;;;;;;;54.57;33.40;;;;;;;2.52;100.00;101009.94;5088478;28;20202;-71
2021/01/11 09:30:02;;;;;;;53.43;31.10;;;;;;;2.65;100.00;100999.16;5060399;28;20182;-72
2021/01/11 09:32:30;;;;;;;57.77;33.37;;;;;;;2.67;100.00;100997.91;5075570;28;20221;-71
2021/01/11 09:34:55;;;;;;;54.57;33.47;;;;;;;2.62;100.00;101004.94;5059555;28;20183;-72
2021/01/11 09:37:23;;;;;;;51.80;32.07;;;;;;;2.67;100.00;100993.38;5059216;28;20218;-72
2021/01/11 09:39:48;;;;;;;58.53;34.57;;;;;;;2.78;100.00;100995.41;5093309;28;20285;-72
2021/01/11 09:42:14;;;;;;;55.67;32.37;;;;;;;2.78;100.00;100994.53;5059177;28;20230;-72
2021/01/11 09:44:41;;;;;;;55.60;32.87;;;;;;;2.77;100.00;100999.09;5059568;28;20198;-72
2021/01/11 09:47:07;;;;;;;55.47;31.50;;;;;;;2.57;100.00;100983.31;5059472;28;20298;-71
2021/01/11 09:49:33;;;;;;;50.00;31.67;;;;;;;2.62;100.00;100994.22;5076979;28;20215;-72
2021/01/11 09:52:01;;;;;;;55.67;31.63;;;;;;;2.62;100.00;100989.69;5058549;28;20687;-71
2021/01/11 09:54:27;;;;;;;55.40;33.27;;;;;;;2.71;100.00;100977.66;5093842;28;20486;-72
2021/01/11 09:56:52;;;;;;;50.70;32.30;;;;;;;2.73;100.00;100987.16;5093551;28;20226;-71
2021/01/11 09:59:21;;;;;;;52.77;32.40;;;;;;;2.88;100.00;100979.66;5078083;28;20182;-71
2021/01/11 10:01:49;;;;;;;56.27;34.90;;;;;;;2.80;100.00;100982.59;5076689;28;20313;-72
2021/01/11 10:04:15;;;;;;;52.70;32.03;;;;;;;2.71;100.00;100973.16;5045150;28;20197;-71
2021/01/11 10:06:42;;;;;;;49.37;31.53;;;;;;;2.70;100.00;100976.84;5078419;28;20240;-72
2021/01/11 10:09:10;;;;;;;54.87;33.40;;;;;;;2.66;100.00;100980.19;5061420;28;20644;-71
2021/01/11 10:11:35;;;;;;;54.80;32.97;;;;;;;2.75;100.00;100984.28;5059724;28;20214;-72
2021/01/11 10:14:03;;;;;;;54.20;33.57;;;;;;;2.83;100.00;100981.31;5075742;28;20241;-71
2021/01/11 10:16:29;;;;;;;50.90;33.30;;;;;;;2.90;100.00;100976.75;5075982;28;20628;-72
2021/01/11 10:18:55;;;;;;;51.47;31.87;;;;;;;2.93;100.00;100971.78;5059748;28;20209;-71
2021/01/11 10:21:20;;;;;;;56.77;33.50;;;;;;;2.72;100.00;100972.09;5093504;28;20233;-70
2021/01/11 10:23:47;;;;;;;52.73;32.00;;;;;;;2.79;100.00;100972.88;5075468;28;20206;-71
2021/01/11 10:26:17;;;;;;;52.47;31.80;;;;;;;2.83;100.00;100960.69;5074187;28;20726;-72
2021/01/11 10:28:42;;;;;;;49.30;29.13;;;;;;;2.66;100.00;100965.97;5092058;28;20563;-73
2021/01/11 10:31:08;;;;;;;50.43;30.47;;;;;;;2.78;100.00;100957.84;5041310;28;20218;-72
2021/01/11 10:33:34;;;;;;;49.50;31.23;;;;;;;2.68;100.00;100951.31;5093317;28;20194;-72
2021/01/11 10:36:00;;;;;;;49.37;31.87;;;;;;;2.79;100.00;100946.06;5073980;28;20712;-72
2021/01/11 10:38:25;;;;;;;47.63;29.37;;;;;;;2.68;100.00;100944.06;5057488;28;20197;-71
2021/01/11 10:40:51;;;;;;;61.37;37.40;;;;;;;2.75;100.00;100947.53;5062477;28;20226;-71
2021/01/11 10:43:17;;;;;;;55.30;34.53;;;;;;;2.78;100.00;100944.44;5083483;28;20214;-72
2021/01/11 10:45:43;;;;;;;44.73;28.77;;;;;;;2.81;100.00;100925.22;5090275;28;20233;-71
2021/01/11 10:48:10;;;;;;;48.73;32.10;;;;;;;2.83;100.00;100938.41;5074823;28;20183;-72
2021/01/11 10:50:36;;;;;;;46.77;29.57;;;;;;;2.81;100.00;100930.59;5074186;28;20718;-72
2021/01/11 10:53:02;;;;;;;44.90;30.03;;;;;;;2.76;100.00;100930.41;5041061;28;20210;-73
2021/01/11 10:55:30;;;;;;;46.97;29.70;;;;;;;2.78;100.00;100931.03;5053734;28;20218;-71
2021/01/11 10:57:56;;;;;;;47.50;29.73;;;;;;;2.82;100.00;100924.19;5090846;28;20247;-72
2021/01/11 11:00:25;;;;;;;48.10;30.13;;;;;;;2.79;100.00;100910.41;5057454;28;20190;-73
2021/01/11 11:02:53;;;;;;;48.80;31.63;;;;;;;2.83;100.00;100914.28;5058260;28;20623;-72
2021/01/11 11:05:19;;;;;;;44.67;28.83;;;;;;;2.84;100.00;100916.75;5056484;28;20175;-73
2021/01/11 11:07:47;;;;;;;51.43;31.43;;;;;;;2.71;100.00;100903.44;5074456;28;20393;-72
2021/01/11 11:10:13;;;;;;;45.43;29.07;;;;;;;2.77;100.00;100899.88;5041260;28;20246;-72
2021/01/11 11:12:42;;;;;;;45.97;29.60;;;;;;;2.72;100.00;100904.25;5057648;28;20169;-72
2021/01/11 11:15:08;;;;;;;44.13;27.03;;;;;;;2.76;100.00;100895.53;5090280;28;20191;-72
2021/01/11 11:17:34;;;;;;;42.87;26.73;;;;;;;2.86;100.00;100885.19;5074715;28;20181;-72